KDUA/DUA METAR and TAF weather

Enter ICAO airport designator
Station Type Date Time Source
KDUA METAR 2020/01/18 21:37 UTC NOAA

KDUA 182137Z AUTO 02017G25KT 10SM CLR 12/M05 A3035 RMK AO2


Station Type Date Time Source
KDUA Decoded METAR 2020/01/18 21:37 UTC NOAA

Durant, Eaker Field Airport, OK, United States (KDUA) 33-56-32N 096-23-40W
Jan 18, 2020 - 04:37 PM EST / 2020.01.18 2137 UTC
Wind: from the NNE (020 degrees) at 20 MPH (17 KT) gusting to 29 MPH (25 KT):0
Visibility: 10 mile(s):0
Sky conditions: clear
Temperature: 53 F (12 C)
Dew Point: 23 F (-5 C)
Relative Humidity: 30%
Pressure (altimeter): 30.35 in. Hg (1027 hPa)
ob: KDUA 182137Z AUTO 02017G25KT 10SM CLR 12/M05 A3035 RMK AO2
cycle: 21

Station Type Date Time Source
KDUA TAF UTC NOAA

Error!

Example: see airport list